createdAt,value
2023-02-19T00:00:06.582Z,3.58
2023-02-19T00:02:36.187Z,4.20
2023-02-19T00:05:08.952Z,5.45
2023-02-19T00:07:35.549Z,4.28
2023-02-19T00:10:02.148Z,5.20
2023-02-19T00:12:28.749Z,4.07
2023-02-19T00:14:57.207Z,5.07
2023-02-19T00:17:23.811Z,7.22
2023-02-19T00:19:53.283Z,5.82
2023-02-19T00:22:19.878Z,2.47
2023-02-19T00:24:48.971Z,3.37
2023-02-19T00:27:16.021Z,4.05
2023-02-19T00:29:42.637Z,3.28
2023-02-19T00:32:43.708Z,3.45
2023-02-19T00:35:28.702Z,5.10
2023-02-19T00:37:55.242Z,4.20
2023-02-19T00:40:22.767Z,2.72
2023-02-19T00:42:49.311Z,3.67
2023-02-19T00:45:15.846Z,2.97
2023-02-19T00:47:42.402Z,3.62
2023-02-19T00:50:18.366Z,2.35
2023-02-19T00:52:44.910Z,3.20
2023-02-19T00:55:16.828Z,3.15
2023-02-19T00:57:43.362Z,2.58
2023-02-19T01:00:10.925Z,3.92
2023-02-19T01:02:59.530Z,2.58
2023-02-19T01:05:44.806Z,4.43
2023-02-19T01:08:11.322Z,3.92
2023-02-19T01:10:37.866Z,4.12
2023-02-19T01:13:13.548Z,4.12
2023-02-19T01:15:40.772Z,3.67
2023-02-19T01:18:07.583Z,2.72
2023-02-19T01:20:45.036Z,3.97
2023-02-19T01:23:13.079Z,3.50
2023-02-19T01:25:42.878Z,3.20
2023-02-19T01:28:11.004Z,2.65
2023-02-19T01:33:58.398Z,4.37
2023-02-19T01:36:37.794Z,4.25
2023-02-19T01:39:05.939Z,4.30
2023-02-19T01:41:36.430Z,5.35
2023-02-19T01:44:05.234Z,5.18
2023-02-19T01:46:33.643Z,3.78
2023-02-19T01:52:01.937Z,3.22
2023-02-19T01:54:37.746Z,3.30
2023-02-19T01:57:08.294Z,2.95
2023-02-19T01:59:35.289Z,3.20
2023-02-19T02:02:01.991Z,2.72
2023-02-19T02:04:43.754Z,2.97
2023-02-19T02:10:37.660Z,2.67
2023-02-19T02:13:04.374Z,3.20
2023-02-19T02:15:43.873Z,2.40
2023-02-19T02:18:36.622Z,2.75
2023-02-19T02:21:40.777Z,1.65
2023-02-19T02:24:10.261Z,2.22
2023-02-19T02:27:10.683Z,2.60
2023-02-19T02:30:34.708Z,4.05
2023-02-19T02:33:12.670Z,3.10
2023-02-19T02:36:03.709Z,2.92
2023-02-19T02:38:33.311Z,3.35
2023-02-19T02:41:00.280Z,3.28
2023-02-19T02:43:26.888Z,3.45
2023-02-19T02:46:24.338Z,3.00
2023-02-19T02:49:15.158Z,3.15
2023-02-19T02:51:47.353Z,2.95
2023-02-19T02:54:38.765Z,3.35
2023-02-19T02:57:06.936Z,3.45
2023-02-19T02:59:37.080Z,3.15
2023-02-19T03:02:14.941Z,2.72
2023-02-19T03:05:07.788Z,2.45
2023-02-19T03:07:40.110Z,1.90
2023-02-19T03:10:10.258Z,1.73
2023-02-19T03:12:58.817Z,2.00
2023-02-19T03:19:31.635Z,1.90
2023-02-19T03:22:01.250Z,1.42
2023-02-19T03:24:50.878Z,1.50
2023-02-19T03:27:21.092Z,1.35
2023-02-19T03:29:50.234Z,2.30
2023-02-19T03:32:33.445Z,2.95
2023-02-19T03:37:44.130Z,5.55
2023-02-19T03:40:12.077Z,3.75
2023-02-19T03:42:41.546Z,2.85
2023-02-19T03:45:58.548Z,3.58
2023-02-19T03:48:58.966Z,2.95
2023-02-19T03:51:39.587Z,2.28
2023-02-19T03:54:36.385Z,3.17
2023-02-19T03:57:23.657Z,3.00
2023-02-19T04:00:04.039Z,2.47
2023-02-19T04:02:41.315Z,2.20
2023-02-19T04:05:16.403Z,1.95
2023-02-19T04:07:47.843Z,3.72
2023-02-19T04:10:16.583Z,2.08
2023-02-19T04:12:49.521Z,2.10
2023-02-19T04:18:25.402Z,1.90
2023-02-19T04:20:52.806Z,1.17
2023-02-19T04:23:24.790Z,2.15
2023-02-19T04:25:56.868Z,1.70
2023-02-19T04:28:23.613Z,1.80
2023-02-19T04:30:50.413Z,2.10
2023-02-19T04:33:17.053Z,2.53
2023-02-19T04:35:43.615Z,1.50
2023-02-19T04:38:10.553Z,1.50
2023-02-19T04:40:37.073Z,2.10
2023-02-19T04:43:28.595Z,1.27
2023-02-19T04:46:07.730Z,2.12
2023-02-19T04:48:46.734Z,1.10
2023-02-19T04:51:13.511Z,1.30
2023-02-19T04:53:40.264Z,1.45
2023-02-19T04:56:09.237Z,1.35
2023-02-19T04:58:37.474Z,1.45
2023-02-19T05:01:04.566Z,1.58
2023-02-19T05:03:41.721Z,1.50
2023-02-19T05:06:11.117Z,2.05
2023-02-19T05:08:37.803Z,1.83
2023-02-19T05:11:07.142Z,2.67
2023-02-19T05:13:52.115Z,1.98
2023-02-19T05:16:49.688Z,1.58
2023-02-19T05:19:18.384Z,1.90
2023-02-19T05:21:44.939Z,1.60
2023-02-19T05:24:11.583Z,2.35
2023-02-19T05:26:38.140Z,2.67
2023-02-19T05:29:04.679Z,2.20
2023-02-19T05:34:20.182Z,4.68
2023-02-19T05:36:46.813Z,3.20
2023-02-19T05:39:13.421Z,4.18
2023-02-19T05:41:40.033Z,5.72
2023-02-19T05:44:30.802Z,3.03
2023-02-19T05:47:15.654Z,3.47
2023-02-19T05:49:42.262Z,3.67
2023-02-19T05:52:08.782Z,2.97
2023-02-19T05:54:35.347Z,2.92
2023-02-19T05:57:17.422Z,4.93
2023-02-19T05:59:44.002Z,3.20
2023-02-19T06:02:10.573Z,3.50
2023-02-19T06:04:37.780Z,5.68
2023-02-19T06:07:04.355Z,5.40
2023-02-19T06:09:32.320Z,4.47
2023-02-19T06:11:58.875Z,6.15
2023-02-19T06:14:25.531Z,6.97
2023-02-19T06:16:58.154Z,7.60
2023-02-19T06:19:52.818Z,7.20
2023-02-19T06:22:22.893Z,12.73
2023-02-19T06:24:49.431Z,10.15
2023-02-19T06:27:16.009Z,9.77
2023-02-19T06:29:42.636Z,13.25
2023-02-19T06:32:09.301Z,11.50
2023-02-19T06:34:36.269Z,11.80
2023-02-19T06:37:03.214Z,10.93
2023-02-19T06:39:35.344Z,13.75
2023-02-19T06:42:01.908Z,12.40
2023-02-19T06:44:28.439Z,11.18
2023-02-19T06:46:55.954Z,17.55
2023-02-19T06:49:22.858Z,17.90
2023-02-19T06:52:20.474Z,16.60
2023-02-19T06:55:11.862Z,18.10
2023-02-19T06:57:57.772Z,19.73
2023-02-19T07:00:27.012Z,20.65
2023-02-19T07:11:13.782Z,22.85
2023-02-19T07:13:40.428Z,22.62
2023-02-19T07:16:09.915Z,25.48
2023-02-19T07:18:37.736Z,24.35
2023-02-19T07:21:29.625Z,23.17
2023-02-19T07:24:27.901Z,21.40
2023-02-19T07:27:08.846Z,24.08
2023-02-19T07:29:35.389Z,22.65
2023-02-19T07:32:02.107Z,25.55
2023-02-19T07:34:28.644Z,24.17
2023-02-19T07:36:55.190Z,28.27
2023-02-19T07:39:21.755Z,26.50
2023-02-19T07:41:48.297Z,24.15
2023-02-19T07:44:16.784Z,25.30
2023-02-19T07:46:44.335Z,23.55
2023-02-19T07:49:10.907Z,23.15
2023-02-19T07:51:39.908Z,20.92
2023-02-19T07:54:07.724Z,22.52
2023-02-19T07:56:52.815Z,21.98
2023-02-19T07:59:47.339Z,22.55
2023-02-19T08:02:37.293Z,20.40
2023-02-19T08:05:05.544Z,20.55
2023-02-19T08:07:36.404Z,21.60
2023-02-19T08:10:30.543Z,20.40
2023-02-19T08:13:16.786Z,21.87
2023-02-19T08:15:43.706Z,20.85
2023-02-19T08:18:10.875Z,22.85
2023-02-19T08:20:37.728Z,24.17
2023-02-19T08:23:04.920Z,23.92
2023-02-19T08:25:31.998Z,23.00
2023-02-19T08:28:00.372Z,22.80
2023-02-19T08:30:28.515Z,21.37
2023-02-19T08:32:55.918Z,22.27
2023-02-19T08:35:22.749Z,19.77
2023-02-19T08:37:49.719Z,21.33
2023-02-19T08:40:16.476Z,21.80
2023-02-19T08:42:43.255Z,23.10
2023-02-19T08:45:10.150Z,23.08
2023-02-19T08:47:38.177Z,21.65
2023-02-19T08:50:06.197Z,20.17
2023-02-19T08:52:33.236Z,22.20
2023-02-19T08:55:00.261Z,21.83
2023-02-19T08:57:29.420Z,20.83
2023-02-19T08:59:59.488Z,24.23
2023-02-19T09:02:26.176Z,25.15
2023-02-19T09:04:52.738Z,22.08
2023-02-19T09:07:20.339Z,23.60
2023-02-19T09:09:46.891Z,23.05
2023-02-19T09:12:13.527Z,25.08
2023-02-19T09:14:40.513Z,24.83
2023-02-19T09:17:09.062Z,24.23
2023-02-19T09:19:36.497Z,23.58
2023-02-19T09:22:04.564Z,22.85
2023-02-19T09:24:31.967Z,24.92
2023-02-19T09:26:58.953Z,25.05
2023-02-19T09:29:27.367Z,26.50
2023-02-19T09:32:01.117Z,24.42
2023-02-19T09:34:28.948Z,22.50
2023-02-19T09:36:56.006Z,25.55
2023-02-19T09:39:22.657Z,24.33
2023-02-19T09:41:53.486Z,25.65
2023-02-19T09:44:42.020Z,26.00
2023-02-19T09:47:23.402Z,25.00
2023-02-19T09:49:55.860Z,25.92
2023-02-19T09:52:27.431Z,25.17
2023-02-19T09:54:59.415Z,25.55
2023-02-19T09:57:29.994Z,24.57
2023-02-19T10:00:09.654Z,27.45
2023-02-19T10:02:37.409Z,26.45
2023-02-19T10:05:11.393Z,26.67
2023-02-19T10:07:41.675Z,25.40
2023-02-19T10:10:35.716Z,25.65
2023-02-19T10:13:19.256Z,26.20
2023-02-19T10:15:50.809Z,26.33
2023-02-19T10:18:20.356Z,26.42
2023-02-19T10:20:48.897Z,24.23
2023-02-19T10:23:16.630Z,27.87
2023-02-19T10:25:49.334Z,25.40
2023-02-19T10:28:20.333Z,27.40
2023-02-19T10:30:53.232Z,26.23
2023-02-19T10:35:59.478Z,24.77
2023-02-19T10:38:39.059Z,25.23
2023-02-19T10:41:13.664Z,26.23
2023-02-19T10:43:50.986Z,22.77
2023-02-19T10:46:28.425Z,22.25
2023-02-19T10:49:06.657Z,20.10
2023-02-19T10:51:37.657Z,19.83
2023-02-19T10:54:14.851Z,19.98
2023-02-19T10:56:42.161Z,17.05
2023-02-19T10:59:28.792Z,16.52
2023-02-19T11:01:56.276Z,18.73
2023-02-19T11:04:24.180Z,18.45
2023-02-19T11:06:51.186Z,8.85
2023-02-19T11:09:36.547Z,5.15
2023-02-19T11:12:05.111Z,5.55
2023-02-19T11:14:33.856Z,4.22
2023-02-19T11:17:04.885Z,4.37
2023-02-19T11:19:37.074Z,3.62
2023-02-19T11:22:31.003Z,3.35
2023-02-19T11:25:07.919Z,2.62
2023-02-19T11:27:34.762Z,4.28
2023-02-19T11:30:22.761Z,1.52
2023-02-19T11:32:49.379Z,1.37
2023-02-19T11:35:17.928Z,2.20
2023-02-19T11:38:02.322Z,2.58
2023-02-19T11:40:57.571Z,2.42
2023-02-19T11:43:53.422Z,2.83
2023-02-19T11:46:45.438Z,3.62
2023-02-19T11:49:48.486Z,2.90
2023-02-19T11:52:32.936Z,2.40
2023-02-19T11:55:21.551Z,4.18
2023-02-19T11:58:14.630Z,2.60
2023-02-19T12:01:10.981Z,3.25
2023-02-19T12:04:03.368Z,3.72
2023-02-19T12:07:05.232Z,2.72
2023-02-19T12:09:55.982Z,3.35
2023-02-19T12:12:37.400Z,1.75
2023-02-19T12:15:26.272Z,2.15
2023-02-19T12:18:14.847Z,3.17
2023-02-19T12:20:52.490Z,2.35
2023-02-19T12:23:30.698Z,3.85
2023-02-19T12:26:06.296Z,3.08
2023-02-19T12:29:00.713Z,2.55
2023-02-19T12:32:04.385Z,2.22
2023-02-19T12:34:33.877Z,1.60
2023-02-19T12:37:18.992Z,1.00
2023-02-19T12:39:54.331Z,0.85
2023-02-19T12:42:42.565Z,3.28
2023-02-19T12:45:21.152Z,2.47
2023-02-19T12:48:01.108Z,2.42
2023-02-19T12:50:29.579Z,3.42
2023-02-19T12:53:05.451Z,1.50
2023-02-19T12:55:43.282Z,1.83
2023-02-19T12:58:48.213Z,1.83
2023-02-19T13:01:28.629Z,2.28
2023-02-19T13:04:23.512Z,1.95
2023-02-19T13:07:03.878Z,2.25
2023-02-19T13:09:33.902Z,1.92
2023-02-19T13:12:26.526Z,2.40
2023-02-19T13:15:01.217Z,1.02
2023-02-19T13:18:01.331Z,2.12
2023-02-19T13:20:41.158Z,1.98
2023-02-19T13:23:34.847Z,1.62
2023-02-19T13:26:19.603Z,1.20
2023-02-19T13:29:07.691Z,2.28
2023-02-19T13:31:49.601Z,2.03
2023-02-19T13:34:37.659Z,3.55
2023-02-19T13:37:04.670Z,2.78
2023-02-19T13:39:31.573Z,2.83
2023-02-19T13:42:01.801Z,1.85
2023-02-19T13:44:31.671Z,2.40
2023-02-19T13:46:58.918Z,2.67
2023-02-19T13:49:28.476Z,4.55
2023-02-19T13:52:02.269Z,5.80
2023-02-19T13:54:35.936Z,1.73
2023-02-19T13:57:24.418Z,3.90
2023-02-19T13:59:55.010Z,1.83
2023-02-19T14:02:21.536Z,2.90
2023-02-19T14:04:53.008Z,2.08
2023-02-19T14:07:21.411Z,3.58
2023-02-19T14:09:48.516Z,2.92
2023-02-19T14:12:16.013Z,2.28
2023-02-19T14:14:53.579Z,1.73
2023-02-19T14:17:35.275Z,2.10
2023-02-19T14:20:17.168Z,3.25
2023-02-19T14:22:47.134Z,3.67
2023-02-19T14:25:32.052Z,2.25
2023-02-19T14:28:10.726Z,2.58
2023-02-19T14:30:58.829Z,2.00
2023-02-19T14:33:40.129Z,2.67
2023-02-19T14:36:23.445Z,2.33
2023-02-19T14:39:02.108Z,4.32
2023-02-19T14:41:32.548Z,2.58
2023-02-19T14:44:00.808Z,5.15
2023-02-19T14:46:45.278Z,2.78
2023-02-19T14:49:34.406Z,2.00
2023-02-19T14:52:05.193Z,1.98
2023-02-19T14:54:40.950Z,1.83
2023-02-19T14:57:15.894Z,2.40
2023-02-19T14:59:53.862Z,7.40
2023-02-19T15:02:21.352Z,2.62
2023-02-19T15:04:48.341Z,16.23
2023-02-19T15:07:23.531Z,56.47
2023-02-19T15:09:57.522Z,41.05
2023-02-19T15:12:26.890Z,28.75
2023-02-19T15:14:57.052Z,16.60
2023-02-19T15:17:30.194Z,6.95
2023-02-19T15:20:03.055Z,4.53
2023-02-19T15:25:02.835Z,1.87
2023-02-19T15:27:30.036Z,1.60
2023-02-19T15:29:56.732Z,2.78
2023-02-19T15:32:26.701Z,4.12
2023-02-19T15:35:04.180Z,5.50
2023-02-19T15:37:33.812Z,7.03
2023-02-19T15:40:05.663Z,5.43
2023-02-19T15:42:34.939Z,3.12
2023-02-19T15:45:07.556Z,1.73
2023-02-19T15:47:36.885Z,12.05
2023-02-19T15:50:15.243Z,11.63
2023-02-19T15:52:59.416Z,7.35
2023-02-19T15:55:41.590Z,6.68
2023-02-19T15:58:48.349Z,6.00
2023-02-19T16:01:34.271Z,4.07
2023-02-19T16:04:01.325Z,3.65
2023-02-19T16:06:29.000Z,2.83
2023-02-19T16:09:02.213Z,1.60
2023-02-19T16:11:34.157Z,2.50
2023-02-19T16:14:26.869Z,1.37
2023-02-19T16:17:11.975Z,1.77
2023-02-19T16:20:00.384Z,2.67
2023-02-19T16:22:30.711Z,1.23
2023-02-19T16:25:07.871Z,1.62
2023-02-19T16:27:39.864Z,1.75
2023-02-19T16:30:06.845Z,4.15
2023-02-19T16:32:33.868Z,1.35
2023-02-19T16:35:00.533Z,1.73
2023-02-19T16:37:42.278Z,2.17
2023-02-19T16:40:08.758Z,1.42
2023-02-19T16:42:56.539Z,1.17
2023-02-19T16:45:24.912Z,1.77
2023-02-19T16:47:52.507Z,4.15
2023-02-19T16:50:22.212Z,4.07
2023-02-19T16:52:59.667Z,4.07
2023-02-19T16:55:27.893Z,1.92
2023-02-19T16:57:56.775Z,0.80
2023-02-19T17:00:26.040Z,2.80
2023-02-19T17:02:58.516Z,1.48
2023-02-19T17:05:27.844Z,1.45
2023-02-19T17:07:54.559Z,2.65
2023-02-19T17:10:24.397Z,1.83
2023-02-19T17:12:52.785Z,0.88
2023-02-19T17:15:19.385Z,0.93
2023-02-19T17:17:46.000Z,2.65
2023-02-19T17:20:15.619Z,2.12
2023-02-19T17:22:42.913Z,1.37
2023-02-19T17:25:09.700Z,1.98
2023-02-19T17:27:36.923Z,2.58
2023-02-19T17:30:04.009Z,2.08
2023-02-19T17:32:30.716Z,2.17
2023-02-19T17:34:57.307Z,1.65
2023-02-19T17:37:23.875Z,1.25
2023-02-19T17:39:50.484Z,2.80
2023-02-19T17:42:17.084Z,4.30
2023-02-19T17:44:44.101Z,1.37
2023-02-19T17:47:10.629Z,1.30
2023-02-19T17:49:37.205Z,1.20
2023-02-19T17:52:04.632Z,1.98
2023-02-19T17:54:31.252Z,2.12
2023-02-19T17:56:57.863Z,3.42
2023-02-19T17:59:24.420Z,3.50
2023-02-19T18:01:51.088Z,2.92
2023-02-19T18:04:17.688Z,1.75
2023-02-19T18:06:44.624Z,0.62
2023-02-19T18:09:14.813Z,1.37
2023-02-19T18:11:45.959Z,1.67
2023-02-19T18:14:12.528Z,0.82
2023-02-19T18:16:49.801Z,1.70
2023-02-19T18:19:17.011Z,2.08
2023-02-19T18:21:43.584Z,2.22
2023-02-19T18:24:10.192Z,1.90
2023-02-19T18:26:36.987Z,2.37
2023-02-19T18:29:05.357Z,2.25
2023-02-19T18:31:34.511Z,2.10
2023-02-19T18:34:01.211Z,2.05
2023-02-19T18:36:27.749Z,3.33
2023-02-19T18:38:54.370Z,2.15
2023-02-19T18:41:21.500Z,1.95
2023-02-19T18:43:48.955Z,3.45
2023-02-19T18:46:15.626Z,1.90
2023-02-19T18:48:42.291Z,2.12
2023-02-19T18:51:12.434Z,1.17
2023-02-19T18:53:39.146Z,1.85
2023-02-19T18:56:08.921Z,1.87
2023-02-19T18:58:35.757Z,1.73
2023-02-19T19:01:02.384Z,1.40
2023-02-19T19:03:32.506Z,1.80
2023-02-19T19:06:02.174Z,2.35
2023-02-19T19:08:30.687Z,2.05
2023-02-19T19:10:57.367Z,2.10
2023-02-19T19:13:24.223Z,2.33
2023-02-19T19:15:51.345Z,1.75
2023-02-19T19:18:18.467Z,2.42
2023-02-19T19:20:45.048Z,2.33
2023-02-19T19:23:12.316Z,2.70
2023-02-19T19:25:41.741Z,3.15
2023-02-19T19:28:08.372Z,2.10
2023-02-19T19:30:35.002Z,2.47
2023-02-19T19:33:03.545Z,3.17
2023-02-19T19:35:30.186Z,1.37
2023-02-19T19:37:56.777Z,1.62
2023-02-19T19:40:23.404Z,1.40
2023-02-19T19:42:51.996Z,1.90
2023-02-19T19:45:18.776Z,2.15
2023-02-19T19:47:45.791Z,1.65
2023-02-19T19:50:14.445Z,3.10
2023-02-19T19:52:41.079Z,3.00
2023-02-19T19:55:10.671Z,1.95
2023-02-19T19:57:40.358Z,1.87
2023-02-19T20:00:08.158Z,2.08
2023-02-19T20:02:34.821Z,2.17
2023-02-19T20:05:01.425Z,2.53
2023-02-19T20:07:28.457Z,3.58
2023-02-19T20:09:58.242Z,3.22
2023-02-19T20:12:24.791Z,4.00
2023-02-19T20:14:51.962Z,4.05
2023-02-19T20:17:18.614Z,4.05
2023-02-19T20:19:45.919Z,2.95
2023-02-19T20:22:15.445Z,7.43
2023-02-19T20:24:43.837Z,2.75
2023-02-19T20:27:10.624Z,2.55
2023-02-19T20:29:37.200Z,3.28
2023-02-19T20:32:04.236Z,2.42
2023-02-19T20:34:31.346Z,1.60
2023-02-19T20:36:58.369Z,4.43
2023-02-19T20:39:28.874Z,2.72
2023-02-19T20:41:56.616Z,3.40
2023-02-19T20:44:23.670Z,2.47
2023-02-19T20:46:58.103Z,2.30
2023-02-19T20:49:30.113Z,2.95
2023-02-19T20:52:02.811Z,2.05
2023-02-19T20:54:32.091Z,3.42
2023-02-19T20:57:02.027Z,3.40
2023-02-19T21:04:51.406Z,3.20
2023-02-19T21:07:17.945Z,2.67
2023-02-19T21:09:44.558Z,4.85
2023-02-19T21:12:11.994Z,3.40
2023-02-19T21:14:39.087Z,3.10
2023-02-19T21:18:05.436Z,3.67
2023-02-19T21:20:50.565Z,3.75
2023-02-19T21:23:17.144Z,3.35
2023-02-19T21:25:43.934Z,4.20
2023-02-19T21:28:10.850Z,4.28
2023-02-19T21:30:37.502Z,3.05
2023-02-19T21:33:04.897Z,3.25
2023-02-19T21:35:34.811Z,3.50
2023-02-19T21:38:01.425Z,3.20
2023-02-19T21:40:29.985Z,3.53
2023-02-19T21:42:56.508Z,3.10
2023-02-19T21:45:23.264Z,3.17
2023-02-19T21:47:52.159Z,3.20
2023-02-19T21:54:15.732Z,3.12
2023-02-19T21:56:42.395Z,5.05
2023-02-19T21:59:09.396Z,3.08
2023-02-19T22:01:42.205Z,2.67
2023-02-19T22:04:12.643Z,2.75
2023-02-19T22:06:40.472Z,3.12
2023-02-19T22:09:08.244Z,2.33
2023-02-19T22:11:34.917Z,1.67
2023-02-19T22:14:01.806Z,2.42
2023-02-19T22:16:28.928Z,2.62
2023-02-19T22:18:57.917Z,2.47
2023-02-19T22:21:33.530Z,1.92
2023-02-19T22:26:56.870Z,2.45
2023-02-19T22:29:24.404Z,2.92
2023-02-19T22:31:51.174Z,2.80
2023-02-19T22:34:17.769Z,3.00
2023-02-19T22:36:44.775Z,2.03
2023-02-19T22:39:45.849Z,3.12
2023-02-19T22:42:45.298Z,3.00
2023-02-19T22:45:37.996Z,2.30
2023-02-19T22:48:04.607Z,4.00
2023-02-19T22:50:31.147Z,3.28
2023-02-19T22:52:57.715Z,1.67
2023-02-19T22:55:24.296Z,2.70
2023-02-19T22:57:50.839Z,2.12
2023-02-19T23:02:52.651Z,2.40
2023-02-19T23:05:19.444Z,3.67
2023-02-19T23:07:46.083Z,2.42
2023-02-19T23:10:13.347Z,1.85
2023-02-19T23:12:41.292Z,2.60
2023-02-19T23:15:54.954Z,2.90
2023-02-19T23:18:33.850Z,4.12
2023-02-19T23:21:00.438Z,2.78
2023-02-19T23:23:27.032Z,3.12
2023-02-19T23:25:53.636Z,3.55
2023-02-19T23:28:20.246Z,4.03
2023-02-19T23:30:46.864Z,2.65
2023-02-19T23:33:13.500Z,2.72
2023-02-19T23:35:45.307Z,3.47
2023-02-19T23:38:11.878Z,2.00
2023-02-19T23:40:38.492Z,2.45
2023-02-19T23:43:05.093Z,3.10
2023-02-19T23:45:50.632Z,2.33
2023-02-19T23:48:29.562Z,1.70
2023-02-19T23:50:56.110Z,2.40
2023-02-19T23:53:22.932Z,3.58
2023-02-19T23:55:49.581Z,2.65
2023-02-19T23:58:16.159Z,4.22
